Time;durP1;ratioP1;P1;durP2;ratioP2;P2;SDS_P1;SDS_P2;PMS_P1;PMS_P2;Temp;Humidity;BMP_temperature;BMP_pressure;BME280_temperature;BME280_humidity;BME280_pressure;Samples;Min_cycle;Max_cycle;Signal;HPM_P1;HPM_P2
2023/09/19 00:01:12;;;;;;;3.07;1.10;;;16.70;99.90;;;;;;4995417;28;20191;-31
2023/09/19 00:03:38;;;;;;;2.45;1.20;;;16.60;99.90;;;;;;5013525;28;20194;-32
2023/09/19 00:06:07;;;;;;;1.20;1.08;;;16.60;99.90;;;;;;4996177;28;20182;-31
2023/09/19 00:08:33;;;;;;;3.70;1.27;;;16.50;99.90;;;;;;5033042;28;20214;-32
2023/09/19 00:11:05;;;;;;;1.38;0.88;;;16.50;99.90;;;;;;5023442;28;20278;-32
2023/09/19 00:13:32;;;;;;;2.40;1.00;;;16.50;99.90;;;;;;5004550;28;20213;-32
2023/09/19 00:15:58;;;;;;;2.55;0.98;;;16.50;99.90;;;;;;5006344;28;20273;-32
2023/09/19 00:18:29;;;;;;;2.85;1.30;;;16.50;99.90;;;;;;5013640;28;20297;-31
2023/09/19 00:20:58;;;;;;;1.02;0.93;;;16.60;99.90;;;;;;5000086;28;20189;-32
2023/09/19 00:23:24;;;;;;;2.15;1.10;;;16.60;99.90;;;;;;5011234;28;20198;-32
2023/09/19 00:25:51;;;;;;;2.05;1.02;;;16.60;99.90;;;;;;4996979;28;20206;-32
2023/09/19 00:28:18;;;;;;;1.77;0.95;;;16.60;99.90;;;;;;5022085;28;20206;-32
2023/09/19 00:30:44;;;;;;;1.83;0.88;;;16.60;99.90;;;;;;5017163;28;20174;-32
2023/09/19 00:33:16;;;;;;;1.40;1.17;;;16.60;99.90;;;;;;5000504;28;20187;-32
2023/09/19 00:35:56;;;;;;;1.40;0.80;;;16.60;99.90;;;;;;5018028;28;20183;-32
2023/09/19 00:38:26;;;;;;;1.00;0.90;;;16.70;99.90;;;;;;5007753;28;20228;-32
2023/09/19 00:40:53;;;;;;;2.15;0.77;;;16.70;99.90;;;;;;5008567;28;20186;-32
2023/09/19 00:43:20;;;;;;;1.25;0.90;;;16.60;99.90;;;;;;5004399;28;20183;-32
2023/09/19 00:45:50;;;;;;;1.25;0.93;;;16.60;99.90;;;;;;5024009;28;20179;-32
2023/09/19 00:48:17;;;;;;;1.10;1.00;;;16.70;99.90;;;;;;4997020;28;20203;-32
2023/09/19 00:50:43;;;;;;;2.20;0.80;;;16.70;99.90;;;;;;5025074;28;20206;-32
2023/09/19 00:53:13;;;;;;;1.75;0.85;;;16.70;99.90;;;;;;5006542;28;20174;-32
2023/09/19 00:55:40;;;;;;;3.28;0.90;;;16.70;99.90;;;;;;5028937;28;20198;-32
2023/09/19 00:58:06;;;;;;;1.25;1.10;;;16.60;99.90;;;;;;5001238;28;20297;-32
2023/09/19 01:00:34;;;;;;;1.02;0.90;;;16.60;99.90;;;;;;5023610;28;20182;-32
2023/09/19 01:03:03;;;;;;;3.70;1.02;;;16.60;99.90;;;;;;4998165;28;20192;-32
2023/09/19 01:05:30;;;;;;;1.77;0.80;;;16.60;99.90;;;;;;5003741;28;20234;-32
2023/09/19 01:07:56;;;;;;;2.72;1.17;;;16.60;99.90;;;;;;5031241;28;20214;-32
2023/09/19 01:10:22;;;;;;;0.95;0.90;;;16.60;99.90;;;;;;5030005;28;20182;-32
2023/09/19 01:12:51;;;;;;;2.30;0.95;;;16.60;99.90;;;;;;4999642;28;20205;-32
2023/09/19 01:15:52;;;;;;;2.40;0.90;;;16.60;99.90;;;;;;5013178;28;20290;-32
2023/09/19 01:18:42;;;;;;;3.15;0.95;;;16.60;99.90;;;;;;4999398;28;20293;-32
2023/09/19 01:21:38;;;;;;;1.83;1.10;;;16.60;99.90;;;;;;5014923;28;20265;-32
2023/09/19 01:24:07;;;;;;;0.85;0.70;;;16.60;99.90;;;;;;5013452;28;20315;-32
2023/09/19 01:26:41;;;;;;;0.90;0.70;;;16.60;99.90;;;;;;4994401;28;20179;-32
2023/09/19 01:29:29;;;;;;;1.20;1.00;;;16.60;99.90;;;;;;5001696;28;20204;-32
2023/09/19 01:32:01;;;;;;;1.90;0.90;;;16.60;99.90;;;;;;4987192;28;20187;-32
2023/09/19 01:34:27;;;;;;;2.28;1.00;;;16.60;99.90;;;;;;4996894;28;20353;-32
2023/09/19 01:36:53;;;;;;;1.98;0.80;;;16.60;99.90;;;;;;5013978;28;20209;-32
2023/09/19 01:39:19;;;;;;;2.42;0.88;;;16.60;99.90;;;;;;5029790;28;20234;-32
2023/09/19 01:42:17;;;;;;;1.45;1.00;;;16.60;99.90;;;;;;4988732;28;20186;-32
2023/09/19 01:45:04;;;;;;;2.30;1.25;;;16.60;99.90;;;;;;4970432;28;20221;-32
2023/09/19 01:47:43;;;;;;;2.75;1.30;;;16.50;99.90;;;;;;4995654;28;20183;-31
2023/09/19 01:50:34;;;;;;;2.10;0.90;;;16.50;99.90;;;;;;5016330;28;20179;-32
2023/09/19 01:53:09;;;;;;;2.22;0.95;;;16.50;99.90;;;;;;4997804;28;20217;-32
2023/09/19 01:55:42;;;;;;;0.90;0.90;;;16.50;99.90;;;;;;4998118;28;20210;-31
2023/09/19 01:58:19;;;;;;;1.27;0.90;;;16.50;99.90;;;;;;5001376;28;20201;-32
2023/09/19 02:00:50;;;;;;;1.30;0.70;;;16.40;99.90;;;;;;5013372;28;20178;-32
2023/09/19 02:03:16;;;;;;;1.75;1.00;;;16.40;99.90;;;;;;5002373;28;20213;-32
2023/09/19 02:05:50;;;;;;;3.70;1.20;;;16.40;99.90;;;;;;5015364;28;20186;-32
2023/09/19 02:08:19;;;;;;;1.20;0.82;;;16.40;99.90;;;;;;4992526;28;20309;-32
2023/09/19 02:10:48;;;;;;;1.67;1.23;;;16.40;99.90;;;;;;5002645;28;20188;-32
2023/09/19 02:13:17;;;;;;;2.42;1.00;;;16.40;99.90;;;;;;5026626;28;20179;-32
2023/09/19 02:15:49;;;;;;;0.90;0.80;;;16.40;99.90;;;;;;5004105;28;20214;-32
2023/09/19 02:18:15;;;;;;;1.02;0.90;;;16.40;99.90;;;;;;5010250;28;20202;-32
2023/09/19 02:20:41;;;;;;;1.83;1.10;;;16.40;99.90;;;;;;5019435;28;20189;-32
2023/09/19 02:23:10;;;;;;;2.63;1.20;;;16.30;99.90;;;;;;5010721;28;20179;-32
2023/09/19 02:25:35;;;;;;;2.42;1.08;;;16.40;99.90;;;;;;5008872;28;20190;-32
2023/09/19 02:28:03;;;;;;;1.13;1.02;;;16.30;99.90;;;;;;4993125;28;20203;-32
2023/09/19 02:30:29;;;;;;;1.55;1.20;;;16.30;99.90;;;;;;5017401;28;20189;-31
2023/09/19 02:32:56;;;;;;;2.30;1.10;;;16.30;99.90;;;;;;5001583;28;20174;-32
2023/09/19 02:35:22;;;;;;;2.40;1.30;;;16.20;99.90;;;;;;5008015;28;20210;-32
2023/09/19 02:37:48;;;;;;;1.93;1.10;;;16.20;99.90;;;;;;5018508;28;20210;-32
2023/09/19 02:40:25;;;;;;;2.50;1.15;;;16.20;99.90;;;;;;4998289;28;20635;-32
2023/09/19 02:42:55;;;;;;;1.95;1.20;;;16.10;99.90;;;;;;4992756;28;20202;-32
2023/09/19 02:45:23;;;;;;;1.90;1.10;;;16.10;99.90;;;;;;5004714;28;20222;-32
2023/09/19 02:47:49;;;;;;;2.30;1.20;;;16.10;99.90;;;;;;5002847;28;20203;-32
2023/09/19 02:50:16;;;;;;;3.40;1.20;;;16.10;99.90;;;;;;5010180;28;20221;-32
2023/09/19 02:52:44;;;;;;;1.73;1.20;;;16.10;99.90;;;;;;4996711;28;20186;-32
2023/09/19 02:55:12;;;;;;;2.85;1.20;;;16.10;99.90;;;;;;5029824;28;20252;-32
2023/09/19 02:57:40;;;;;;;1.42;1.00;;;16.10;99.90;;;;;;5012169;28;20293;-32
2023/09/19 03:00:10;;;;;;;4.82;1.42;;;16.20;99.90;;;;;;5009563;28;20190;-32
2023/09/19 03:02:37;;;;;;;3.55;1.20;;;16.20;99.90;;;;;;5021252;28;20332;-32
2023/09/19 03:05:04;;;;;;;2.60;1.20;;;16.20;99.90;;;;;;4997139;28;20182;-32
2023/09/19 03:07:30;;;;;;;1.98;1.13;;;16.20;99.90;;;;;;5003875;28;20182;-32
2023/09/19 03:09:56;;;;;;;3.67;1.40;;;16.20;99.90;;;;;;5100878;22;20225;-31
2023/09/19 03:12:22;;;;;;;1.50;1.20;;;16.30;99.90;;;;;;5046598;28;20181;-31
2023/09/19 03:14:50;;;;;;;1.53;1.13;;;16.20;99.90;;;;;;5036515;28;20215;-31
2023/09/19 03:17:16;;;;;;;2.20;1.17;;;16.20;99.90;;;;;;5046454;28;20197;-31
2023/09/19 03:19:42;;;;;;;1.37;1.10;;;16.30;99.90;;;;;;5032816;28;20198;-31
2023/09/19 03:22:08;;;;;;;2.00;1.27;;;16.30;99.90;;;;;;5042078;28;20184;-30
2023/09/19 03:24:36;;;;;;;3.53;1.05;;;16.30;99.90;;;;;;5041639;28;20190;-31
2023/09/19 03:27:03;;;;;;;1.98;1.10;;;16.30;99.90;;;;;;5036284;28;20200;-31
2023/09/19 03:29:30;;;;;;;2.20;1.20;;;16.30;99.90;;;;;;5049605;28;20202;-31
2023/09/19 03:31:56;;;;;;;1.95;1.10;;;16.30;99.90;;;;;;5037134;28;20184;-30
2023/09/19 03:34:22;;;;;;;1.70;1.10;;;16.30;99.90;;;;;;5040834;28;20296;-31
2023/09/19 03:36:48;;;;;;;1.38;1.20;;;16.30;99.90;;;;;;5032383;28;20182;-31
2023/09/19 03:39:15;;;;;;;1.65;1.35;;;16.30;99.90;;;;;;5033930;28;20293;-31
2023/09/19 03:41:42;;;;;;;3.00;1.50;;;16.30;99.90;;;;;;5054623;28;20181;-31
2023/09/19 03:44:08;;;;;;;1.10;1.00;;;16.30;99.90;;;;;;5059141;28;20189;-30
2023/09/19 03:46:35;;;;;;;3.08;1.33;;;16.30;99.90;;;;;;5033621;28;20193;-29
2023/09/19 03:49:02;;;;;;;1.90;1.37;;;16.20;99.90;;;;;;5057849;28;20201;-28
2023/09/19 03:51:31;;;;;;;2.30;1.40;;;16.20;99.90;;;;;;5035587;28;20188;-29
2023/09/19 03:54:07;;;;;;;1.73;1.23;;;16.20;99.90;;;;;;5055367;28;20213;-34
2023/09/19 03:56:35;;;;;;;2.80;1.20;;;16.20;99.90;;;;;;5061040;28;20265;-30
2023/09/19 03:59:15;;;;;;;2.25;1.40;;;16.20;99.90;;;;;;5049502;28;20229;-30
2023/09/19 04:01:46;;;;;;;3.42;1.50;;;16.20;99.90;;;;;;5032021;28;20182;-29
2023/09/19 04:04:29;;;;;;;1.30;1.20;;;16.20;99.90;;;;;;5033487;28;20187;-30
2023/09/19 04:06:55;;;;;;;1.75;1.30;;;16.20;99.90;;;;;;5013474;28;20241;-32
2023/09/19 04:09:21;;;;;;;3.03;1.30;;;16.20;99.90;;;;;;5025520;28;20214;-31
2023/09/19 04:11:47;;;;;;;1.57;1.27;;;16.20;99.90;;;;;;5019682;28;20178;-29
2023/09/19 04:14:13;;;;;;;1.45;1.35;;;16.20;99.90;;;;;;5034864;28;20206;-28
2023/09/19 04:16:39;;;;;;;3.28;1.40;;;16.20;99.90;;;;;;5015931;28;20185;-29
2023/09/19 04:19:05;;;;;;;2.97;1.23;;;16.20;99.90;;;;;;5030554;28;20205;-29
2023/09/19 04:21:31;;;;;;;1.50;1.20;;;16.20;99.90;;;;;;5036193;28;20183;-31
2023/09/19 04:23:58;;;;;;;1.33;1.15;;;16.20;99.90;;;;;;5020890;28;20273;-29
2023/09/19 04:26:26;;;;;;;1.33;1.23;;;16.20;99.90;;;;;;5037235;28;20186;-29
2023/09/19 04:28:53;;;;;;;1.88;1.20;;;16.20;99.90;;;;;;5032331;28;20203;-29
2023/09/19 04:31:20;;;;;;;1.20;1.08;;;16.20;99.90;;;;;;5018828;28;20248;-30
2023/09/19 04:33:46;;;;;;;1.77;1.42;;;16.20;99.90;;;;;;5016262;28;20206;-29
2023/09/19 04:36:13;;;;;;;3.37;1.43;;;16.10;99.90;;;;;;5013853;28;20167;-29
2023/09/19 04:38:39;;;;;;;1.50;1.40;;;16.10;99.90;;;;;;5025736;28;20195;-29
2023/09/19 04:41:05;;;;;;;3.33;1.67;;;16.10;99.90;;;;;;5034029;28;20183;-29
2023/09/19 04:43:32;;;;;;;1.23;1.10;;;16.10;99.90;;;;;;5029790;28;20278;-29
2023/09/19 04:46:01;;;;;;;2.40;1.20;;;16.10;99.90;;;;;;5053534;28;20244;-30
2023/09/19 04:48:29;;;;;;;2.37;1.07;;;16.10;99.90;;;;;;5017330;28;20281;-31
2023/09/19 04:50:54;;;;;;;2.50;1.30;;;16.10;99.90;;;;;;5038736;28;20190;-30
2023/09/19 04:53:21;;;;;;;2.70;1.60;;;16.10;99.90;;;;;;5016393;28;20182;-30
2023/09/19 04:55:52;;;;;;;3.57;1.40;;;16.10;99.90;;;;;;5037845;28;20249;-30
2023/09/19 04:58:20;;;;;;;2.50;1.50;;;16.00;99.90;;;;;;5023898;28;20198;-29
2023/09/19 05:00:45;;;;;;;2.47;1.40;;;16.00;99.90;;;;;;5016032;28;20174;-30
2023/09/19 05:03:11;;;;;;;1.43;1.33;;;16.00;99.90;;;;;;5033373;28;20182;-29
2023/09/19 05:05:38;;;;;;;1.87;1.30;;;16.00;99.90;;;;;;5033872;28;20198;-29
2023/09/19 05:08:05;;;;;;;4.32;1.30;;;16.00;99.90;;;;;;5029038;28;20206;-29
2023/09/19 05:10:32;;;;;;;4.28;1.70;;;16.00;99.90;;;;;;5018203;28;20190;-29
2023/09/19 05:12:58;;;;;;;2.53;1.55;;;16.00;99.90;;;;;;5030650;28;20241;-29
2023/09/19 05:15:24;;;;;;;3.58;1.55;;;16.00;99.90;;;;;;5025504;28;20240;-29
2023/09/19 05:17:54;;;;;;;4.20;2.00;;;16.00;99.90;;;;;;5018629;28;20187;-29
2023/09/19 05:20:30;;;;;;;5.30;1.70;;;16.00;99.90;;;;;;5018640;28;20189;-30
2023/09/19 05:23:05;;;;;;;2.77;1.67;;;16.00;99.90;;;;;;5033042;28;20189;-30
2023/09/19 05:25:37;;;;;;;3.07;1.40;;;16.00;99.90;;;;;;5028417;28;20193;-29
2023/09/19 05:28:05;;;;;;;3.00;1.50;;;16.00;99.90;;;;;;5020362;28;20178;-30
2023/09/19 05:30:38;;;;;;;1.73;1.50;;;16.00;99.90;;;;;;5015285;28;20182;-34
2023/09/19 05:33:05;;;;;;;5.67;1.57;;;16.00;99.90;;;;;;5029896;28;20213;-29
2023/09/19 05:35:31;;;;;;;2.13;1.30;;;16.00;99.90;;;;;;5019400;28;20218;-29
2023/09/19 05:37:58;;;;;;;3.65;1.38;;;16.10;99.90;;;;;;5014643;28;20174;-29
2023/09/19 05:40:25;;;;;;;2.40;1.47;;;16.10;99.90;;;;;;5014902;28;20234;-29
2023/09/19 05:42:51;;;;;;;3.38;1.80;;;16.20;99.90;;;;;;5030552;28;20187;-29
2023/09/19 05:45:22;;;;;;;2.80;1.57;;;16.20;99.90;;;;;;5016490;28;20183;-30
2023/09/19 05:47:55;;;;;;;2.03;1.70;;;16.20;99.90;;;;;;5028700;28;20190;-29
2023/09/19 05:50:22;;;;;;;2.38;1.80;;;16.30;99.90;;;;;;5021028;28;20190;-30
2023/09/19 05:52:55;;;;;;;1.80;1.55;;;16.20;99.90;;;;;;5016528;28;20184;-29
2023/09/19 05:55:25;;;;;;;2.00;1.57;;;16.30;99.90;;;;;;5039565;28;20361;-29
2023/09/19 05:57:56;;;;;;;4.38;2.13;;;16.30;99.90;;;;;;5029814;28;20190;-29
2023/09/19 06:00:24;;;;;;;3.40;2.00;;;16.30;99.90;;;;;;5012894;28;20186;-29
2023/09/19 06:02:54;;;;;;;3.90;1.92;;;16.30;99.90;;;;;;5030109;28;20206;-31
2023/09/19 06:05:21;;;;;;;2.03;1.80;;;16.20;99.90;;;;;;5014734;28;20245;-29
2023/09/19 06:07:48;;;;;;;2.90;1.80;;;16.20;99.90;;;;;;5029791;28;20205;-33
2023/09/19 06:10:14;;;;;;;2.80;1.30;;;16.20;99.90;;;;;;5014292;28;20198;-30
2023/09/19 06:12:43;;;;;;;2.87;1.40;;;16.10;99.90;;;;;;5046540;28;20191;-29
2023/09/19 06:15:14;;;;;;;2.30;1.20;;;16.10;99.90;;;;;;5014991;28;20210;-29
2023/09/19 06:17:57;;;;;;;1.40;1.30;;;16.20;99.90;;;;;;5013312;28;20188;-28
2023/09/19 06:20:25;;;;;;;2.35;1.20;;;16.20;99.90;;;;;;5029480;28;20189;-29
2023/09/19 06:22:51;;;;;;;5.63;1.10;;;16.20;99.90;;;;;;5029560;28;20186;-33
2023/09/19 06:25:21;;;;;;;1.30;1.07;;;16.20;99.90;;;;;;5018432;28;20235;-30
2023/09/19 06:27:48;;;;;;;1.87;1.30;;;16.20;99.90;;;;;;5029805;28;20182;-29
2023/09/19 06:30:14;;;;;;;1.40;1.00;;;16.20;99.90;;;;;;5021550;28;20187;-30
2023/09/19 06:32:43;;;;;;;2.25;1.30;;;16.30;99.90;;;;;;5038051;28;20192;-31
2023/09/19 06:35:11;;;;;;;1.48;1.20;;;16.30;99.90;;;;;;5030012;28;20425;-28
2023/09/19 06:37:40;;;;;;;4.63;1.25;;;16.40;99.90;;;;;;5024628;28;20265;-29
2023/09/19 06:40:14;;;;;;;1.57;1.20;;;16.40;99.90;;;;;;5028497;28;20202;-31
2023/09/19 06:42:45;;;;;;;1.25;1.13;;;16.40;99.90;;;;;;5030271;28;20269;-28
2023/09/19 06:45:13;;;;;;;2.15;0.80;;;16.50;99.90;;;;;;5012901;28;20190;-33
2023/09/19 06:47:39;;;;;;;1.92;1.20;;;16.50;99.90;;;;;;5029358;28;20183;-29
2023/09/19 06:50:09;;;;;;;2.78;1.17;;;16.60;99.90;;;;;;5019259;28;20308;-30
2023/09/19 06:52:35;;;;;;;1.40;1.10;;;16.70;99.90;;;;;;5030629;28;20193;-31
2023/09/19 06:55:03;;;;;;;1.98;1.15;;;16.70;99.90;;;;;;5010971;28;20210;-30
2023/09/19 06:57:33;;;;;;;1.30;1.15;;;16.70;99.90;;;;;;5029602;28;20218;-30
2023/09/19 07:00:01;;;;;;;3.83;1.00;;;16.80;99.90;;;;;;5021437;28;20205;-29
2023/09/19 07:02:28;;;;;;;2.75;1.17;;;16.80;99.90;;;;;;5029504;28;20194;-29
2023/09/19 07:04:55;;;;;;;2.28;1.30;;;16.80;99.90;;;;;;5048975;28;20182;-29
2023/09/19 07:07:21;;;;;;;2.25;1.10;;;16.90;99.90;;;;;;5024881;28;20198;-29
2023/09/19 07:09:48;;;;;;;10.10;2.47;;;17.00;99.90;;;;;;5029994;28;20218;-29
2023/09/19 07:12:17;;;;;;;13.73;2.45;;;17.10;99.90;;;;;;5034008;28;20225;-31
2023/09/19 07:14:44;;;;;;;4.50;1.50;;;17.10;99.90;;;;;;5048445;28;20210;-30
2023/09/19 07:17:18;;;;;;;1.40;1.10;;;17.20;99.90;;;;;;5028964;28;20171;-29
2023/09/19 07:19:45;;;;;;;2.33;1.10;;;17.30;99.90;;;;;;5027469;28;20344;-32
2023/09/19 07:22:11;;;;;;;1.30;1.17;;;17.30;99.90;;;;;;5040133;28;20193;-29
2023/09/19 07:24:38;;;;;;;2.83;1.02;;;17.30;99.90;;;;;;5025750;28;20187;-29
2023/09/19 07:27:05;;;;;;;2.05;0.93;;;17.40;99.90;;;;;;5030301;28;20186;-30
2023/09/19 07:29:35;;;;;;;1.58;1.08;;;17.50;99.90;;;;;;5034392;28;20205;-29
2023/09/19 07:32:01;;;;;;;2.67;1.20;;;17.50;99.90;;;;;;5031652;28;20194;-29
2023/09/19 07:34:27;;;;;;;0.82;0.82;;;17.60;99.90;;;;;;5031530;28;20298;-30
2023/09/19 07:36:56;;;;;;;2.80;1.13;;;17.60;99.90;;;;;;5016681;28;20182;-29
2023/09/19 07:39:26;;;;;;;1.65;1.00;;;17.50;99.90;;;;;;5016775;28;20210;-29
2023/09/19 07:41:53;;;;;;;2.60;1.02;;;17.50;99.90;;;;;;5032986;28;20639;-30
2023/09/19 07:44:20;;;;;;;2.05;1.02;;;17.50;99.90;;;;;;5015264;28;20209;-29
2023/09/19 07:46:46;;;;;;;1.55;1.30;;;17.50;99.90;;;;;;5017651;28;20182;-29
2023/09/19 07:49:13;;;;;;;1.67;1.00;;;17.50;99.90;;;;;;5028552;28;20207;-29
2023/09/19 07:51:41;;;;;;;1.45;1.15;;;17.50;99.90;;;;;;5036027;28;20193;-30
2023/09/19 07:54:12;;;;;;;2.67;1.00;;;17.50;99.90;;;;;;5032146;28;20202;-29
2023/09/19 07:56:40;;;;;;;1.65;1.00;;;17.50;99.90;;;;;;5030606;28;20214;-29
2023/09/19 07:59:06;;;;;;;2.35;1.40;;;17.60;99.90;;;;;;5030337;28;20262;-29
2023/09/19 08:01:35;;;;;;;1.65;1.05;;;17.60;99.90;;;;;;5033327;28;20274;-29
2023/09/19 08:04:02;;;;;;;3.92;1.25;;;17.80;99.90;;;;;;5034912;28;20186;-29
2023/09/19 08:06:30;;;;;;;2.17;1.20;;;18.10;99.90;;;;;;5035839;28;20245;-30
2023/09/19 08:08:57;;;;;;;1.42;1.33;;;18.30;99.90;;;;;;5032699;28;20210;-29
2023/09/19 08:11:24;;;;;;;1.55;1.10;;;18.40;99.90;;;;;;5027997;28;20214;-32
2023/09/19 08:13:50;;;;;;;1.30;0.90;;;18.60;99.90;;;;;;5015791;28;20193;-29
2023/09/19 08:16:22;;;;;;;1.25;1.05;;;18.80;99.90;;;;;;5025158;28;20270;-31
2023/09/19 08:18:52;;;;;;;3.05;0.93;;;18.90;99.90;;;;;;5031626;28;20686;-29
2023/09/19 08:21:18;;;;;;;1.20;1.10;;;18.90;99.90;;;;;;5029393;28;20258;-29
2023/09/19 08:23:46;;;;;;;3.70;1.15;;;19.00;99.90;;;;;;5031884;28;20181;-29
2023/09/19 08:26:13;;;;;;;1.15;0.98;;;19.00;99.90;;;;;;5039895;28;20183;-29
2023/09/19 08:28:42;;;;;;;1.95;1.17;;;19.00;99.90;;;;;;5021803;28;20197;-31
2023/09/19 08:31:12;;;;;;;2.13;1.20;;;18.90;99.90;;;;;;5038644;28;20226;-29
2023/09/19 08:33:48;;;;;;;2.85;1.52;;;18.90;99.90;;;;;;5040503;28;20214;-29
2023/09/19 08:36:19;;;;;;;4.57;1.30;;;19.00;99.90;;;;;;5033226;28;20194;-29
2023/09/19 08:38:46;;;;;;;1.63;1.10;;;19.00;99.90;;;;;;5014891;28;20221;-29
2023/09/19 08:41:12;;;;;;;2.33;1.10;;;19.00;99.90;;;;;;5040387;28;20179;-30
2023/09/19 08:43:39;;;;;;;1.90;1.20;;;19.10;99.90;;;;;;5031946;28;20179;-30
2023/09/19 08:46:16;;;;;;;1.92;1.00;;;19.20;99.90;;;;;;5016968;28;20179;-29
2023/09/19 08:49:03;;;;;;;2.47;1.10;;;19.30;99.90;;;;;;5015413;28;20206;-29
2023/09/19 08:51:54;;;;;;;2.42;1.17;;;19.50;99.90;;;;;;5021756;28;20173;-30
2023/09/19 08:54:37;;;;;;;2.03;1.30;;;19.50;99.90;;;;;;5024107;28;20253;-31
2023/09/19 08:57:10;;;;;;;1.58;1.00;;;19.70;99.90;;;;;;5056785;28;20183;-29
2023/09/19 08:59:49;;;;;;;1.10;0.90;;;19.70;99.90;;;;;;5018339;28;20194;-29
2023/09/19 09:02:20;;;;;;;2.67;1.30;;;19.70;99.90;;;;;;5020431;28;20183;-30
2023/09/19 09:04:50;;;;;;;1.67;1.20;;;19.90;99.90;;;;;;5024256;28;20182;-32
2023/09/19 09:07:25;;;;;;;3.08;1.35;;;19.90;99.90;;;;;;5026472;28;20273;-31
2023/09/19 09:09:51;;;;;;;1.55;1.10;;;20.00;99.90;;;;;;5042025;23;20270;-30
2023/09/19 09:12:21;;;;;;;2.20;1.30;;;20.20;99.90;;;;;;5030712;28;20182;-30
2023/09/19 09:14:52;;;;;;;3.22;1.10;;;20.20;99.90;;;;;;5031591;28;20297;-29
2023/09/19 09:17:28;;;;;;;1.85;1.20;;;20.40;99.90;;;;;;5032071;28;20170;-29
2023/09/19 09:19:58;;;;;;;3.33;1.30;;;20.40;99.90;;;;;;5022177;28;20203;-30
2023/09/19 09:22:25;;;;;;;3.92;1.10;;;20.20;99.90;;;;;;5020822;28;20185;-30
2023/09/19 09:24:58;;;;;;;2.20;1.05;;;20.00;99.90;;;;;;5030489;28;20190;-30
2023/09/19 09:27:26;;;;;;;2.97;1.02;;;20.10;99.90;;;;;;5033899;28;20183;-30
2023/09/19 09:29:56;;;;;;;1.77;1.25;;;20.20;99.90;;;;;;5026516;28;20210;-29
2023/09/19 09:32:31;;;;;;;2.13;1.33;;;20.40;99.90;;;;;;5023844;28;20190;-30
2023/09/19 09:35:01;;;;;;;2.58;1.20;;;20.50;99.90;;;;;;5034888;28;20213;-30
2023/09/19 09:37:30;;;;;;;3.13;1.20;;;20.70;99.90;;;;;;5033460;28;20190;-30
2023/09/19 09:40:17;;;;;;;5.13;1.48;;;20.90;99.90;;;;;;5029437;28;20202;-29
2023/09/19 09:42:46;;;;;;;1.20;1.10;;;20.80;99.90;;;;;;5026807;28;20182;-30
2023/09/19 09:45:37;;;;;;;1.38;1.20;;;20.80;99.90;;;;;;5020857;28;20202;-30
2023/09/19 09:48:14;;;;;;;4.47;1.40;;;20.80;99.90;;;;;;5038937;28;20186;-30
2023/09/19 09:53:33;;;;;;;2.33;1.20;;;20.30;99.90;;;;;;5045570;28;20185;-30
2023/09/19 09:56:09;;;;;;;2.45;1.20;;;20.40;99.90;;;;;;5013949;28;20267;-30
2023/09/19 09:58:59;;;;;;;1.38;1.27;;;20.50;99.90;;;;;;5053013;28;20268;-30
2023/09/19 10:01:31;;;;;;;4.63;1.58;;;20.70;99.90;;;;;;5016625;28;20174;-30
2023/09/19 10:04:00;;;;;;;1.23;1.08;;;20.70;99.90;;;;;;5015217;28;20178;-29
2023/09/19 10:06:27;;;;;;;2.20;1.20;;;20.60;99.90;;;;;;5013953;28;20182;-30
2023/09/19 10:09:11;;;;;;;1.40;1.17;;;20.50;99.90;;;;;;5024274;28;20236;-30
2023/09/19 10:11:56;;;;;;;3.90;1.40;;;20.40;99.90;;;;;;5033927;28;20227;-30
2023/09/19 10:14:31;;;;;;;2.33;1.35;;;20.30;99.90;;;;;;5075466;28;20249;-30
2023/09/19 10:17:03;;;;;;;2.42;1.48;;;20.40;99.90;;;;;;5052576;28;20179;-30
2023/09/19 10:19:57;;;;;;;1.98;1.27;;;20.40;99.90;;;;;;5058176;28;20208;-30
2023/09/19 10:22:24;;;;;;;2.00;1.27;;;20.50;99.90;;;;;;5058079;28;20181;-30
2023/09/19 10:24:53;;;;;;;3.08;1.25;;;20.50;99.90;;;;;;5037690;28;20272;-30
2023/09/19 10:27:23;;;;;;;3.33;1.20;;;20.50;99.90;;;;;;5036502;28;20185;-30
2023/09/19 10:29:51;;;;;;;1.30;1.08;;;20.50;99.90;;;;;;5041331;28;20220;-29
2023/09/19 10:32:19;;;;;;;2.20;1.30;;;20.40;99.90;;;;;;5045443;28;20251;-30
2023/09/19 10:34:47;;;;;;;1.85;1.30;;;20.50;99.90;;;;;;5048876;28;20236;-30
2023/09/19 10:37:15;;;;;;;1.25;1.15;;;20.60;99.90;;;;;;5036485;28;20311;-29
2023/09/19 10:39:45;;;;;;;1.17;1.00;;;20.60;99.90;;;;;;5040219;28;20211;-30
2023/09/19 10:42:17;;;;;;;2.47;1.10;;;20.50;99.90;;;;;;5050174;28;20257;-30
2023/09/19 10:44:44;;;;;;;2.90;1.30;;;20.60;99.90;;;;;;5032771;28;20240;-30
2023/09/19 10:47:11;;;;;;;1.35;1.13;;;20.60;99.90;;;;;;5045954;28;20185;-30
2023/09/19 10:49:46;;;;;;;2.35;1.30;;;20.70;99.90;;;;;;5051312;28;20209;-29
2023/09/19 10:52:19;;;;;;;1.98;1.30;;;20.90;99.90;;;;;;5050827;28;20230;-30
2023/09/19 10:54:54;;;;;;;3.97;1.35;;;21.10;99.90;;;;;;5054861;28;20216;-30
2023/09/19 10:57:24;;;;;;;3.35;1.05;;;21.30;99.90;;;;;;5051795;28;20184;-30
2023/09/19 11:00:27;;;;;;;1.55;1.00;;;21.30;99.90;;;;;;5044311;28;20296;-29
2023/09/19 11:03:11;;;;;;;1.63;1.40;;;21.20;99.90;;;;;;5054238;28;20753;-30
2023/09/19 11:05:41;;;;;;;1.35;1.10;;;21.20;99.90;;;;;;5039013;28;20208;-29
2023/09/19 11:08:08;;;;;;;1.83;1.20;;;21.20;99.90;;;;;;5034557;28;20197;-30
2023/09/19 11:10:50;;;;;;;3.03;1.30;;;20.90;99.90;;;;;;5038370;28;20217;-30
2023/09/19 11:13:36;;;;;;;1.52;1.25;;;20.80;99.90;;;;;;5036651;28;20180;-30
2023/09/19 11:16:05;;;;;;;2.55;1.10;;;20.90;99.90;;;;;;5051451;28;20202;-30
2023/09/19 11:18:43;;;;;;;1.73;1.15;;;21.00;99.90;;;;;;5029847;28;20177;-30
2023/09/19 11:21:32;;;;;;;2.60;1.40;;;21.10;99.90;;;;;;5038955;28;20241;-30
2023/09/19 11:24:10;;;;;;;1.73;1.30;;;21.30;99.90;;;;;;5036493;28;20178;-29
2023/09/19 11:26:50;;;;;;;2.00;1.25;;;21.50;99.90;;;;;;5067873;28;20169;-30
2023/09/19 11:29:33;;;;;;;1.63;1.10;;;21.50;99.90;;;;;;5050728;28;20212;-30
2023/09/19 11:32:02;;;;;;;2.45;1.20;;;21.50;99.90;;;;;;5033052;28;20182;-30
2023/09/19 11:34:37;;;;;;;3.03;1.65;;;21.50;99.90;;;;;;5037072;28;20243;-30
2023/09/19 11:37:23;;;;;;;2.30;1.40;;;21.80;99.90;;;;;;5035412;28;20177;-30
2023/09/19 11:40:18;;;;;;;1.83;1.20;;;22.00;99.90;;;;;;5019151;28;20205;-30
2023/09/19 11:42:53;;;;;;;2.03;1.00;;;22.10;99.90;;;;;;5045897;28;20181;-30
2023/09/19 11:45:57;;;;;;;1.27;1.13;;;22.10;99.90;;;;;;5049676;28;20296;-30
2023/09/19 11:48:27;;;;;;;2.08;1.17;;;22.10;99.90;;;;;;5033199;28;20183;-30
2023/09/19 11:50:59;;;;;;;1.27;0.98;;;22.00;99.90;;;;;;5046959;28;20192;-30
2023/09/19 11:53:32;;;;;;;3.33;1.13;;;22.10;99.90;;;;;;5036511;28;21124;-30
2023/09/19 11:56:00;;;;;;;1.15;1.05;;;22.10;99.90;;;;;;5047998;28;20209;-29
2023/09/19 11:58:28;;;;;;;1.95;1.05;;;22.10;99.90;;;;;;5035904;28;20186;-30
2023/09/19 12:00:58;;;;;;;1.50;1.00;;;22.30;99.90;;;;;;5034540;28;20184;-30
2023/09/19 12:03:30;;;;;;;2.25;1.13;;;22.30;99.90;;;;;;5046350;28;20181;-30
2023/09/19 12:05:58;;;;;;;1.25;1.10;;;22.30;99.90;;;;;;5067479;28;20177;-30
2023/09/19 12:08:27;;;;;;;1.20;1.10;;;22.30;99.90;;;;;;5040245;28;20173;-30
2023/09/19 12:10:55;;;;;;;1.63;1.02;;;22.30;99.90;;;;;;5051212;28;20189;-30
2023/09/19 12:13:22;;;;;;;3.08;1.25;;;22.40;99.90;;;;;;5042881;28;20185;-30
2023/09/19 12:15:48;;;;;;;1.63;1.10;;;22.50;99.90;;;;;;5036033;28;20248;-30
2023/09/19 12:18:30;;;;;;;2.97;1.27;;;22.60;99.90;;;;;;5041615;28;20198;-31
2023/09/19 12:20:58;;;;;;;1.75;1.33;;;22.70;99.90;;;;;;5043054;28;20181;-31
2023/09/19 12:23:25;;;;;;;3.00;1.35;;;22.90;99.90;;;;;;5035479;28;20173;-30
2023/09/19 12:25:56;;;;;;;2.75;1.30;;;23.00;99.90;;;;;;5034043;28;20196;-30
2023/09/19 12:28:26;;;;;;;1.85;1.10;;;23.20;99.90;;;;;;5046579;28;20204;-30
2023/09/19 12:30:55;;;;;;;1.95;1.42;;;23.30;99.90;;;;;;5051613;28;20783;-30
2023/09/19 12:33:25;;;;;;;1.30;1.20;;;23.30;99.90;;;;;;5050145;28;20188;-30
2023/09/19 12:35:53;;;;;;;2.80;1.23;;;23.30;99.90;;;;;;5038889;28;20197;-30
2023/09/19 12:38:35;;;;;;;1.92;1.20;;;23.20;99.90;;;;;;5055139;28;20181;-30
2023/09/19 12:41:02;;;;;;;1.90;1.30;;;23.30;99.90;;;;;;5041503;28;20189;-30
2023/09/19 12:43:33;;;;;;;2.45;1.20;;;23.30;99.90;;;;;;5036407;28;20199;-30
2023/09/19 12:45:59;;;;;;;2.05;1.30;;;23.40;99.90;;;;;;5057905;28;20185;-30
2023/09/19 12:48:31;;;;;;;1.20;1.05;;;23.60;99.90;;;;;;5054351;28;20672;-30
2023/09/19 12:51:09;;;;;;;2.00;1.15;;;23.70;99.90;;;;;;5050104;28;20223;-30
2023/09/19 12:53:40;;;;;;;2.10;1.30;;;23.90;99.90;;;;;;5037144;28;20177;-31
2023/09/19 12:56:08;;;;;;;2.38;1.25;;;23.80;99.90;;;;;;5050253;28;20214;-30
2023/09/19 12:58:49;;;;;;;2.22;1.15;;;23.80;99.90;;;;;;5041603;28;20267;-30
2023/09/19 13:01:16;;;;;;;1.50;1.30;;;23.90;99.90;;;;;;5035005;28;20734;-30
2023/09/19 13:03:42;;;;;;;2.42;1.23;;;24.00;99.90;;;;;;5061954;28;20188;-31
2023/09/19 13:06:10;;;;;;;2.88;1.20;;;24.00;99.90;;;;;;5054625;28;20181;-30
2023/09/19 13:08:38;;;;;;;1.52;1.23;;;24.20;99.90;;;;;;5047354;28;20230;-30